Terminal Aerodrome Forecast
Issued by NWS

Home | Current Version | Previous Version | Text Only | Print | Product List | Glossary On
Versions: 1 2 3 4 5 6 7 8 9 10 11 12 13 14 15 16 17 18 19 20 21
743
FTUS42 KFFC 301950 AAA
TAFRYY
TAF AMD
KRYY 301950Z 3020/3118 20007KT P6SM VCSH SCT050
      TEMPO 3020/3022 5SM -TSRA BKN035CB
     FM310000 24004KT P6SM SCT060
     FM310900 00000KT 4SM BR BKN035
     FM311200 00000KT P6SM SCT035
     FM311500 25004KT P6SM SCT045 PROB30 3115/3118 SHRA BKN045=

USA.gov is the U.S. government's official web portal to all federal, state and local government web resources and services.